sensor_id;sensor_type;location;lat;lon;timestamp;temperature;humidity
3758;DHT22;1894;51.038;13.692;2023-04-10T00:00:35;6.00;99.90
3758;DHT22;1894;51.038;13.692;2023-04-10T00:03:04;6.00;99.90
3758;DHT22;1894;51.038;13.692;2023-04-10T00:05:31;6.00;99.90
3758;DHT22;1894;51.038;13.692;2023-04-10T00:07:59;5.90;99.90
3758;DHT22;1894;51.038;13.692;2023-04-10T00:10:26;5.80;99.90
3758;DHT22;1894;51.038;13.692;2023-04-10T00:12:56;5.80;99.90
3758;DHT22;1894;51.038;13.692;2023-04-10T00:15:24;5.80;99.90
3758;DHT22;1894;51.038;13.692;2023-04-10T00:17:52;5.80;99.90
3758;DHT22;1894;51.038;13.692;2023-04-10T00:20:21;5.70;99.90
3758;DHT22;1894;51.038;13.692;2023-04-10T00:22:49;5.60;99.90
3758;DHT22;1894;51.038;13.692;2023-04-10T00:25:16;5.60;99.90
3758;DHT22;1894;51.038;13.692;2023-04-10T00:27:43;5.50;99.90
3758;DHT22;1894;51.038;13.692;2023-04-10T00:30:11;5.50;99.90
3758;DHT22;1894;51.038;13.692;2023-04-10T00:32:38;5.50;99.90
3758;DHT22;1894;51.038;13.692;2023-04-10T00:35:07;5.50;99.90
3758;DHT22;1894;51.038;13.692;2023-04-10T00:37:34;5.40;99.90
3758;DHT22;1894;51.038;13.692;2023-04-10T00:40:03;5.40;99.90
3758;DHT22;1894;51.038;13.692;2023-04-10T00:42:31;5.30;99.90
3758;DHT22;1894;51.038;13.692;2023-04-10T00:44:59;5.30;99.90
3758;DHT22;1894;51.038;13.692;2023-04-10T00:47:27;5.30;99.90
3758;DHT22;1894;51.038;13.692;2023-04-10T00:49:54;5.30;99.90
3758;DHT22;1894;51.038;13.692;2023-04-10T00:52:23;5.30;99.90
3758;DHT22;1894;51.038;13.692;2023-04-10T00:54:52;5.30;99.90
3758;DHT22;1894;51.038;13.692;2023-04-10T00:57:19;5.30;99.90
3758;DHT22;1894;51.038;13.692;2023-04-10T00:59:46;5.20;99.90
3758;DHT22;1894;51.038;13.692;2023-04-10T01:02:14;5.20;99.90
3758;DHT22;1894;51.038;13.692;2023-04-10T01:04:42;5.20;99.90
3758;DHT22;1894;51.038;13.692;2023-04-10T01:13:07;5.10;99.90
3758;DHT22;1894;51.038;13.692;2023-04-10T01:15:51;5.10;99.90
3758;DHT22;1894;51.038;13.692;2023-04-10T01:21:22;5.00;99.90
3758;DHT22;1894;51.038;13.692;2023-04-10T01:24:20;5.10;99.90
3758;DHT22;1894;51.038;13.692;2023-04-10T01:27:30;5.00;99.90
3758;DHT22;1894;51.038;13.692;2023-04-10T01:30:05;5.00;99.90
3758;DHT22;1894;51.038;13.692;2023-04-10T01:32:38;5.00;99.90
3758;DHT22;1894;51.038;13.692;2023-04-10T01:35:07;5.00;99.90
3758;DHT22;1894;51.038;13.692;2023-04-10T01:37:39;5.00;99.90
3758;DHT22;1894;51.038;13.692;2023-04-10T01:40:13;4.90;99.90
3758;DHT22;1894;51.038;13.692;2023-04-10T01:42:50;4.90;99.90
3758;DHT22;1894;51.038;13.692;2023-04-10T01:45:27;4.80;99.90
3758;DHT22;1894;51.038;13.692;2023-04-10T01:47:55;4.80;99.90
3758;DHT22;1894;51.038;13.692;2023-04-10T01:50:22;4.70;99.90
3758;DHT22;1894;51.038;13.692;2023-04-10T01:52:51;4.80;99.90
3758;DHT22;1894;51.038;13.692;2023-04-10T01:55:23;4.80;99.90
3758;DHT22;1894;51.038;13.692;2023-04-10T01:57:56;4.90;99.90
3758;DHT22;1894;51.038;13.692;2023-04-10T02:00:23;4.90;99.90
3758;DHT22;1894;51.038;13.692;2023-04-10T02:02:51;4.80;99.90
3758;DHT22;1894;51.038;13.692;2023-04-10T02:05:19;4.90;99.90
3758;DHT22;1894;51.038;13.692;2023-04-10T02:11:16;4.90;99.90
3758;DHT22;1894;51.038;13.692;2023-04-10T02:14:01;5.00;99.90
3758;DHT22;1894;51.038;13.692;2023-04-10T02:16:30;5.00;99.90
3758;DHT22;1894;51.038;13.692;2023-04-10T02:19:00;4.90;99.90
3758;DHT22;1894;51.038;13.692;2023-04-10T02:21:28;4.90;99.90
3758;DHT22;1894;51.038;13.692;2023-04-10T02:23:56;5.00;99.90
3758;DHT22;1894;51.038;13.692;2023-04-10T02:26:24;4.90;99.90
3758;DHT22;1894;51.038;13.692;2023-04-10T02:28:51;4.90;99.90
3758;DHT22;1894;51.038;13.692;2023-04-10T02:31:18;4.90;99.90
3758;DHT22;1894;51.038;13.692;2023-04-10T02:33:46;4.80;99.90
3758;DHT22;1894;51.038;13.692;2023-04-10T02:36:14;4.80;99.90
3758;DHT22;1894;51.038;13.692;2023-04-10T02:38:41;4.70;99.90
3758;DHT22;1894;51.038;13.692;2023-04-10T02:41:10;4.60;99.90
3758;DHT22;1894;51.038;13.692;2023-04-10T02:43:37;4.60;99.90
3758;DHT22;1894;51.038;13.692;2023-04-10T02:46:04;4.60;99.90
3758;DHT22;1894;51.038;13.692;2023-04-10T02:48:37;4.50;99.90
3758;DHT22;1894;51.038;13.692;2023-04-10T02:51:04;4.40;99.90
3758;DHT22;1894;51.038;13.692;2023-04-10T02:53:32;4.40;99.90
3758;DHT22;1894;51.038;13.692;2023-04-10T02:56:00;4.30;99.90
3758;DHT22;1894;51.038;13.692;2023-04-10T02:58:28;4.20;99.90
3758;DHT22;1894;51.038;13.692;2023-04-10T03:00:57;4.10;99.90
3758;DHT22;1894;51.038;13.692;2023-04-10T03:03:50;4.20;99.90
3758;DHT22;1894;51.038;13.692;2023-04-10T03:06:27;4.20;99.90
3758;DHT22;1894;51.038;13.692;2023-04-10T03:08:56;4.20;99.90
3758;DHT22;1894;51.038;13.692;2023-04-10T03:11:25;4.10;99.90
3758;DHT22;1894;51.038;13.692;2023-04-10T03:13:52;4.10;99.90
3758;DHT22;1894;51.038;13.692;2023-04-10T03:16:20;4.10;99.90
3758;DHT22;1894;51.038;13.692;2023-04-10T03:18:48;4.20;99.90
3758;DHT22;1894;51.038;13.692;2023-04-10T03:21:15;4.20;99.90
3758;DHT22;1894;51.038;13.692;2023-04-10T03:23:42;4.40;99.90
3758;DHT22;1894;51.038;13.692;2023-04-10T03:26:10;4.50;99.90
3758;DHT22;1894;51.038;13.692;2023-04-10T03:28:37;4.50;99.90
3758;DHT22;1894;51.038;13.692;2023-04-10T03:31:08;4.70;99.90
3758;DHT22;1894;51.038;13.692;2023-04-10T03:33:37;4.80;99.90
3758;DHT22;1894;51.038;13.692;2023-04-10T03:36:05;4.90;99.90
3758;DHT22;1894;51.038;13.692;2023-04-10T03:38:33;4.90;99.90
3758;DHT22;1894;51.038;13.692;2023-04-10T03:41:01;5.00;99.90
3758;DHT22;1894;51.038;13.692;2023-04-10T03:43:30;5.10;99.90
3758;DHT22;1894;51.038;13.692;2023-04-10T03:45:59;5.20;99.90
3758;DHT22;1894;51.038;13.692;2023-04-10T03:48:28;5.20;99.90
3758;DHT22;1894;51.038;13.692;2023-04-10T03:50:56;5.20;99.90
3758;DHT22;1894;51.038;13.692;2023-04-10T03:53:24;5.10;99.90
3758;DHT22;1894;51.038;13.692;2023-04-10T03:55:53;5.20;99.90
3758;DHT22;1894;51.038;13.692;2023-04-10T03:58:22;5.20;99.90
3758;DHT22;1894;51.038;13.692;2023-04-10T04:00:50;5.20;99.90
3758;DHT22;1894;51.038;13.692;2023-04-10T04:03:31;5.20;99.90
3758;DHT22;1894;51.038;13.692;2023-04-10T04:05:59;5.30;99.90
3758;DHT22;1894;51.038;13.692;2023-04-10T04:08:38;5.40;99.90
3758;DHT22;1894;51.038;13.692;2023-04-10T04:11:19;5.30;99.90
3758;DHT22;1894;51.038;13.692;2023-04-10T04:13:58;5.20;99.90
3758;DHT22;1894;51.038;13.692;2023-04-10T04:16:40;5.20;99.90
3758;DHT22;1894;51.038;13.692;2023-04-10T04:19:20;5.00;99.90
3758;DHT22;1894;51.038;13.692;2023-04-10T04:22:08;4.90;99.90
3758;DHT22;1894;51.038;13.692;2023-04-10T04:25:05;4.80;99.90
3758;DHT22;1894;51.038;13.692;2023-04-10T04:27:54;4.80;99.90
3758;DHT22;1894;51.038;13.692;2023-04-10T04:30:31;4.80;99.90
3758;DHT22;1894;51.038;13.692;2023-04-10T04:33:24;4.90;99.90
3758;DHT22;1894;51.038;13.692;2023-04-10T04:36:00;4.90;99.90
3758;DHT22;1894;51.038;13.692;2023-04-10T04:38:38;4.90;99.90
3758;DHT22;1894;51.038;13.692;2023-04-10T04:41:11;5.00;99.90
3758;DHT22;1894;51.038;13.692;2023-04-10T04:44:08;5.10;99.90
3758;DHT22;1894;51.038;13.692;2023-04-10T04:46:54;5.10;99.90
3758;DHT22;1894;51.038;13.692;2023-04-10T04:49:27;5.20;99.90
3758;DHT22;1894;51.038;13.692;2023-04-10T04:52:24;5.30;99.90
3758;DHT22;1894;51.038;13.692;2023-04-10T04:55:23;5.30;99.90
3758;DHT22;1894;51.038;13.692;2023-04-10T04:57:58;5.40;99.90
3758;DHT22;1894;51.038;13.692;2023-04-10T05:00:55;5.40;99.90
3758;DHT22;1894;51.038;13.692;2023-04-10T05:03:41;5.40;99.90
3758;DHT22;1894;51.038;13.692;2023-04-10T05:06:21;5.40;99.90
3758;DHT22;1894;51.038;13.692;2023-04-10T05:09:08;5.60;99.90
3758;DHT22;1894;51.038;13.692;2023-04-10T05:11:51;5.60;99.90
3758;DHT22;1894;51.038;13.692;2023-04-10T05:14:38;5.60;99.90
3758;DHT22;1894;51.038;13.692;2023-04-10T05:17:18;5.50;99.90
3758;DHT22;1894;51.038;13.692;2023-04-10T05:20:06;5.60;99.90
3758;DHT22;1894;51.038;13.692;2023-04-10T05:22:40;5.70;99.90
3758;DHT22;1894;51.038;13.692;2023-04-10T05:25:22;5.70;99.90
3758;DHT22;1894;51.038;13.692;2023-04-10T05:28:01;5.70;99.90
3758;DHT22;1894;51.038;13.692;2023-04-10T05:30:47;5.70;99.90
3758;DHT22;1894;51.038;13.692;2023-04-10T05:33:33;5.70;99.90
3758;DHT22;1894;51.038;13.692;2023-04-10T05:36:09;5.70;99.90
3758;DHT22;1894;51.038;13.692;2023-04-10T05:38:50;5.80;99.90
3758;DHT22;1894;51.038;13.692;2023-04-10T05:41:50;5.80;99.90
3758;DHT22;1894;51.038;13.692;2023-04-10T05:44:26;5.90;99.90
3758;DHT22;1894;51.038;13.692;2023-04-10T05:47:06;5.90;99.90
3758;DHT22;1894;51.038;13.692;2023-04-10T05:50:03;5.90;99.90
3758;DHT22;1894;51.038;13.692;2023-04-10T05:52:54;5.90;99.90
3758;DHT22;1894;51.038;13.692;2023-04-10T05:55:44;5.90;99.90
3758;DHT22;1894;51.038;13.692;2023-04-10T05:58:21;5.90;99.90
3758;DHT22;1894;51.038;13.692;2023-04-10T06:01:08;5.80;99.90
3758;DHT22;1894;51.038;13.692;2023-04-10T06:03:43;6.00;99.90
3758;DHT22;1894;51.038;13.692;2023-04-10T06:06:11;6.20;99.90
3758;DHT22;1894;51.038;13.692;2023-04-10T06:08:39;6.40;99.90
3758;DHT22;1894;51.038;13.692;2023-04-10T06:11:06;6.70;99.90
3758;DHT22;1894;51.038;13.692;2023-04-10T06:13:34;7.00;99.90
3758;DHT22;1894;51.038;13.692;2023-04-10T06:16:02;7.20;99.90
3758;DHT22;1894;51.038;13.692;2023-04-10T06:18:30;7.50;99.90
3758;DHT22;1894;51.038;13.692;2023-04-10T06:20:58;7.70;99.90
3758;DHT22;1894;51.038;13.692;2023-04-10T06:23:27;7.90;99.90
3758;DHT22;1894;51.038;13.692;2023-04-10T06:25:55;8.00;99.90
3758;DHT22;1894;51.038;13.692;2023-04-10T06:28:22;8.30;99.90
3758;DHT22;1894;51.038;13.692;2023-04-10T06:30:53;8.50;99.90
3758;DHT22;1894;51.038;13.692;2023-04-10T06:33:28;8.70;99.90
3758;DHT22;1894;51.038;13.692;2023-04-10T06:35:57;8.80;99.90
3758;DHT22;1894;51.038;13.692;2023-04-10T06:38:25;9.00;99.90
3758;DHT22;1894;51.038;13.692;2023-04-10T06:40:52;9.10;99.90
3758;DHT22;1894;51.038;13.692;2023-04-10T06:43:19;9.20;99.90
3758;DHT22;1894;51.038;13.692;2023-04-10T06:45:47;9.30;99.90
3758;DHT22;1894;51.038;13.692;2023-04-10T06:48:14;9.30;99.90
3758;DHT22;1894;51.038;13.692;2023-04-10T06:50:41;9.30;99.90
3758;DHT22;1894;51.038;13.692;2023-04-10T06:53:08;9.50;99.90
3758;DHT22;1894;51.038;13.692;2023-04-10T06:55:35;9.40;99.90
3758;DHT22;1894;51.038;13.692;2023-04-10T06:58:03;9.30;99.90
3758;DHT22;1894;51.038;13.692;2023-04-10T07:00:30;9.50;99.90
3758;DHT22;1894;51.038;13.692;2023-04-10T07:02:58;9.70;99.90
3758;DHT22;1894;51.038;13.692;2023-04-10T07:05:25;9.90;99.90
3758;DHT22;1894;51.038;13.692;2023-04-10T07:07:52;10.00;99.90
3758;DHT22;1894;51.038;13.692;2023-04-10T07:10:22;10.00;99.90
3758;DHT22;1894;51.038;13.692;2023-04-10T07:12:56;10.20;99.90
3758;DHT22;1894;51.038;13.692;2023-04-10T07:15:24;10.40;99.90
3758;DHT22;1894;51.038;13.692;2023-04-10T07:17:51;10.40;99.90
3758;DHT22;1894;51.038;13.692;2023-04-10T07:20:19;10.60;99.90
3758;DHT22;1894;51.038;13.692;2023-04-10T07:22:46;10.80;99.90
3758;DHT22;1894;51.038;13.692;2023-04-10T07:25:13;10.90;99.90
3758;DHT22;1894;51.038;13.692;2023-04-10T07:27:41;11.00;99.90
3758;DHT22;1894;51.038;13.692;2023-04-10T07:30:11;11.20;99.90
3758;DHT22;1894;51.038;13.692;2023-04-10T07:32:39;11.10;99.90
3758;DHT22;1894;51.038;13.692;2023-04-10T07:35:08;11.00;99.90
3758;DHT22;1894;51.038;13.692;2023-04-10T07:37:37;11.10;99.90
3758;DHT22;1894;51.038;13.692;2023-04-10T07:40:06;10.90;99.90
3758;DHT22;1894;51.038;13.692;2023-04-10T07:42:35;11.00;99.90
3758;DHT22;1894;51.038;13.692;2023-04-10T07:45:06;11.00;99.90
3758;DHT22;1894;51.038;13.692;2023-04-10T07:47:35;11.10;99.90
3758;DHT22;1894;51.038;13.692;2023-04-10T07:50:06;11.40;99.90
3758;DHT22;1894;51.038;13.692;2023-04-10T07:52:33;11.80;99.90
3758;DHT22;1894;51.038;13.692;2023-04-10T07:55:02;12.00;99.90
3758;DHT22;1894;51.038;13.692;2023-04-10T07:57:30;12.00;99.90
3758;DHT22;1894;51.038;13.692;2023-04-10T07:59:58;12.10;99.90
3758;DHT22;1894;51.038;13.692;2023-04-10T08:02:25;12.40;99.90
3758;DHT22;1894;51.038;13.692;2023-04-10T08:04:52;12.50;99.90
3758;DHT22;1894;51.038;13.692;2023-04-10T08:07:20;12.60;99.90
3758;DHT22;1894;51.038;13.692;2023-04-10T08:09:48;12.80;99.90
3758;DHT22;1894;51.038;13.692;2023-04-10T08:12:15;12.50;99.90
3758;DHT22;1894;51.038;13.692;2023-04-10T08:14:43;12.40;99.90
3758;DHT22;1894;51.038;13.692;2023-04-10T08:17:10;12.40;99.90
3758;DHT22;1894;51.038;13.692;2023-04-10T08:19:41;12.20;99.90
3758;DHT22;1894;51.038;13.692;2023-04-10T08:22:09;12.20;99.90
3758;DHT22;1894;51.038;13.692;2023-04-10T08:24:36;12.50;99.90
3758;DHT22;1894;51.038;13.692;2023-04-10T08:27:03;12.90;99.90
3758;DHT22;1894;51.038;13.692;2023-04-10T08:29:30;13.30;99.90
3758;DHT22;1894;51.038;13.692;2023-04-10T08:31:57;13.30;99.90
3758;DHT22;1894;51.038;13.692;2023-04-10T08:34:26;13.20;99.90
3758;DHT22;1894;51.038;13.692;2023-04-10T08:36:54;13.30;99.90
3758;DHT22;1894;51.038;13.692;2023-04-10T08:39:21;13.40;99.90
3758;DHT22;1894;51.038;13.692;2023-04-10T08:41:48;13.40;99.90
3758;DHT22;1894;51.038;13.692;2023-04-10T08:44:16;13.30;99.90
3758;DHT22;1894;51.038;13.692;2023-04-10T08:46:44;13.50;99.90
3758;DHT22;1894;51.038;13.692;2023-04-10T08:49:28;13.60;99.90
3758;DHT22;1894;51.038;13.692;2023-04-10T08:52:01;13.90;99.90
3758;DHT22;1894;51.038;13.692;2023-04-10T08:54:34;14.20;99.90
3758;DHT22;1894;51.038;13.692;2023-04-10T08:57:05;13.90;99.90
3758;DHT22;1894;51.038;13.692;2023-04-10T08:59:36;13.80;99.90
3758;DHT22;1894;51.038;13.692;2023-04-10T09:02:04;14.10;99.90
3758;DHT22;1894;51.038;13.692;2023-04-10T09:04:32;14.30;99.80
3758;DHT22;1894;51.038;13.692;2023-04-10T09:06:59;14.40;99.90
3758;DHT22;1894;51.038;13.692;2023-04-10T09:09:27;14.60;99.20
3758;DHT22;1894;51.038;13.692;2023-04-10T09:11:59;14.80;98.80
3758;DHT22;1894;51.038;13.692;2023-04-10T09:14:31;14.90;98.60
3758;DHT22;1894;51.038;13.692;2023-04-10T09:17:18;14.90;95.60
3758;DHT22;1894;51.038;13.692;2023-04-10T09:22:15;14.80;98.10
3758;DHT22;1894;51.038;13.692;2023-04-10T09:24:44;14.70;97.60
3758;DHT22;1894;51.038;13.692;2023-04-10T09:27:32;14.60;97.40
3758;DHT22;1894;51.038;13.692;2023-04-10T09:30:05;15.10;96.70
3758;DHT22;1894;51.038;13.692;2023-04-10T09:32:38;15.00;96.20
3758;DHT22;1894;51.038;13.692;2023-04-10T09:35:12;15.00;95.70
3758;DHT22;1894;51.038;13.692;2023-04-10T09:37:42;14.60;96.20
3758;DHT22;1894;51.038;13.692;2023-04-10T09:40:21;14.90;96.30
3758;DHT22;1894;51.038;13.692;2023-04-10T09:42:51;15.20;96.00
3758;DHT22;1894;51.038;13.692;2023-04-10T09:45:18;15.10;95.10
3758;DHT22;1894;51.038;13.692;2023-04-10T09:48:01;15.30;95.40
3758;DHT22;1894;51.038;13.692;2023-04-10T09:50:37;15.60;94.90
3758;DHT22;1894;51.038;13.692;2023-04-10T09:53:08;15.70;95.70
3758;DHT22;1894;51.038;13.692;2023-04-10T09:55:37;16.00;95.00
3758;DHT22;1894;51.038;13.692;2023-04-10T09:58:05;16.10;93.60
3758;DHT22;1894;51.038;13.692;2023-04-10T10:00:41;16.20;94.10
3758;DHT22;1894;51.038;13.692;2023-04-10T10:03:13;16.10;92.00
3758;DHT22;1894;51.038;13.692;2023-04-10T10:05:48;16.20;93.10
3758;DHT22;1894;51.038;13.692;2023-04-10T10:08:17;16.10;92.70
3758;DHT22;1894;51.038;13.692;2023-04-10T10:10:52;16.10;93.40
3758;DHT22;1894;51.038;13.692;2023-04-10T10:13:27;16.10;94.10
3758;DHT22;1894;51.038;13.692;2023-04-10T10:21:44;16.10;93.00
3758;DHT22;1894;51.038;13.692;2023-04-10T10:24:12;16.40;91.50
3758;DHT22;1894;51.038;13.692;2023-04-10T10:26:39;16.50;91.90
3758;DHT22;1894;51.038;13.692;2023-04-10T10:29:08;16.50;92.30
3758;DHT22;1894;51.038;13.692;2023-04-10T10:31:40;16.30;91.10
3758;DHT22;1894;51.038;13.692;2023-04-10T10:34:08;16.30;91.40
3758;DHT22;1894;51.038;13.692;2023-04-10T10:36:36;16.60;93.80
3758;DHT22;1894;51.038;13.692;2023-04-10T10:41:59;16.80;91.90
3758;DHT22;1894;51.038;13.692;2023-04-10T10:47:32;17.10;93.60
3758;DHT22;1894;51.038;13.692;2023-04-10T10:50:07;17.40;91.70
3758;DHT22;1894;51.038;13.692;2023-04-10T10:52:41;16.90;90.40
3758;DHT22;1894;51.038;13.692;2023-04-10T10:58:00;17.30;90.00
3758;DHT22;1894;51.038;13.692;2023-04-10T11:05:55;17.40;84.50
3758;DHT22;1894;51.038;13.692;2023-04-10T11:11:06;17.40;86.60
3758;DHT22;1894;51.038;13.692;2023-04-10T11:13:38;17.50;85.50
3758;DHT22;1894;51.038;13.692;2023-04-10T11:16:08;17.60;84.50
3758;DHT22;1894;51.038;13.692;2023-04-10T11:21:22;17.10;84.50
3758;DHT22;1894;51.038;13.692;2023-04-10T11:31:45;17.60;83.20
3758;DHT22;1894;51.038;13.692;2023-04-10T11:34:23;18.10;81.80
3758;DHT22;1894;51.038;13.692;2023-04-10T11:36:51;18.60;78.00
3758;DHT22;1894;51.038;13.692;2023-04-10T11:39:19;18.30;77.60
3758;DHT22;1894;51.038;13.692;2023-04-10T11:41:48;18.80;79.90
3758;DHT22;1894;51.038;13.692;2023-04-10T11:46:54;20.90;74.30
3758;DHT22;1894;51.038;13.692;2023-04-10T11:49:29;22.60;65.50
3758;DHT22;1894;51.038;13.692;2023-04-10T11:51:58;23.20;62.10
3758;DHT22;1894;51.038;13.692;2023-04-10T11:54:27;24.10;62.00
3758;DHT22;1894;51.038;13.692;2023-04-10T11:59:28;26.40;51.20
3758;DHT22;1894;51.038;13.692;2023-04-10T12:02:06;26.70;50.90
3758;DHT22;1894;51.038;13.692;2023-04-10T12:04:35;26.90;46.50
3758;DHT22;1894;51.038;13.692;2023-04-10T12:07:03;25.90;47.90
3758;DHT22;1894;51.038;13.692;2023-04-10T12:09:31;26.10;46.30
3758;DHT22;1894;51.038;13.692;2023-04-10T12:12:00;26.50;46.10
3758;DHT22;1894;51.038;13.692;2023-04-10T12:17:02;28.90;41.40
3758;DHT22;1894;51.038;13.692;2023-04-10T12:19:30;28.80;41.90
3758;DHT22;1894;51.038;13.692;2023-04-10T12:21:59;29.50;41.00
3758;DHT22;1894;51.038;13.692;2023-04-10T12:24:49;28.80;40.30
3758;DHT22;1894;51.038;13.692;2023-04-10T12:27:22;29.90;37.60
3758;DHT22;1894;51.038;13.692;2023-04-10T12:29:53;28.90;36.50
3758;DHT22;1894;51.038;13.692;2023-04-10T12:32:23;29.40;37.20
3758;DHT22;1894;51.038;13.692;2023-04-10T12:34:53;28.90;33.90
3758;DHT22;1894;51.038;13.692;2023-04-10T12:37:25;29.30;33.20
3758;DHT22;1894;51.038;13.692;2023-04-10T12:40:16;30.10;32.40
3758;DHT22;1894;51.038;13.692;2023-04-10T12:42:43;31.10;33.10
3758;DHT22;1894;51.038;13.692;2023-04-10T12:45:10;31.60;32.00
3758;DHT22;1894;51.038;13.692;2023-04-10T12:47:48;30.50;30.00
3758;DHT22;1894;51.038;13.692;2023-04-10T12:50:18;31.20;30.50
3758;DHT22;1894;51.038;13.692;2023-04-10T12:53:07;30.70;30.80
3758;DHT22;1894;51.038;13.692;2023-04-10T12:55:35;31.10;31.40
3758;DHT22;1894;51.038;13.692;2023-04-10T12:58:18;31.10;30.00
3758;DHT22;1894;51.038;13.692;2023-04-10T13:00:48;31.20;30.00
3758;DHT22;1894;51.038;13.692;2023-04-10T13:03:15;29.20;30.00
3758;DHT22;1894;51.038;13.692;2023-04-10T13:05:43;28.20;31.60
3758;DHT22;1894;51.038;13.692;2023-04-10T13:08:10;30.40;29.40
3758;DHT22;1894;51.038;13.692;2023-04-10T13:10:38;30.40;28.40
3758;DHT22;1894;51.038;13.692;2023-04-10T13:13:06;31.70;29.10
3758;DHT22;1894;51.038;13.692;2023-04-10T13:15:34;31.00;30.10
3758;DHT22;1894;51.038;13.692;2023-04-10T13:18:01;29.70;30.40
3758;DHT22;1894;51.038;13.692;2023-04-10T13:20:35;28.00;30.00
3758;DHT22;1894;51.038;13.692;2023-04-10T13:23:03;28.50;30.60
3758;DHT22;1894;51.038;13.692;2023-04-10T13:25:32;29.60;31.00
3758;DHT22;1894;51.038;13.692;2023-04-10T13:28:01;27.80;28.00
3758;DHT22;1894;51.038;13.692;2023-04-10T13:30:29;28.10;28.40
3758;DHT22;1894;51.038;13.692;2023-04-10T13:32:57;27.50;31.80
3758;DHT22;1894;51.038;13.692;2023-04-10T13:35:24;29.90;30.00
3758;DHT22;1894;51.038;13.692;2023-04-10T13:37:51;29.20;28.30
3758;DHT22;1894;51.038;13.692;2023-04-10T13:40:21;28.90;30.30
3758;DHT22;1894;51.038;13.692;2023-04-10T13:42:48;29.20;29.10
3758;DHT22;1894;51.038;13.692;2023-04-10T13:45:15;25.90;29.60
3758;DHT22;1894;51.038;13.692;2023-04-10T13:47:42;27.60;30.50
3758;DHT22;1894;51.038;13.692;2023-04-10T13:50:10;29.40;28.80
3758;DHT22;1894;51.038;13.692;2023-04-10T13:52:37;30.50;27.80
3758;DHT22;1894;51.038;13.692;2023-04-10T13:55:05;30.30;27.40
3758;DHT22;1894;51.038;13.692;2023-04-10T13:57:32;30.80;27.90
3758;DHT22;1894;51.038;13.692;2023-04-10T14:00:00;29.20;27.90
3758;DHT22;1894;51.038;13.692;2023-04-10T14:02:38;29.60;29.40
3758;DHT22;1894;51.038;13.692;2023-04-10T14:05:06;25.90;30.30
3758;DHT22;1894;51.038;13.692;2023-04-10T14:07:34;24.20;32.20
3758;DHT22;1894;51.038;13.692;2023-04-10T14:10:01;24.40;33.50
3758;DHT22;1894;51.038;13.692;2023-04-10T14:12:28;26.00;31.80
3758;DHT22;1894;51.038;13.692;2023-04-10T14:14:55;27.20;30.60
3758;DHT22;1894;51.038;13.692;2023-04-10T14:17:22;29.60;29.20
3758;DHT22;1894;51.038;13.692;2023-04-10T14:19:50;30.80;27.60
3758;DHT22;1894;51.038;13.692;2023-04-10T14:22:19;30.30;27.30
3758;DHT22;1894;51.038;13.692;2023-04-10T14:24:46;27.80;27.10
3758;DHT22;1894;51.038;13.692;2023-04-10T14:27:15;28.10;28.50
3758;DHT22;1894;51.038;13.692;2023-04-10T14:29:42;28.10;28.80
3758;DHT22;1894;51.038;13.692;2023-04-10T14:32:20;29.00;28.30
3758;DHT22;1894;51.038;13.692;2023-04-10T14:34:48;26.10;29.20
3758;DHT22;1894;51.038;13.692;2023-04-10T14:37:15;27.30;28.80
3758;DHT22;1894;51.038;13.692;2023-04-10T14:39:44;27.50;29.00
3758;DHT22;1894;51.038;13.692;2023-04-10T14:42:12;28.40;27.70
3758;DHT22;1894;51.038;13.692;2023-04-10T14:44:39;27.80;27.00
3758;DHT22;1894;51.038;13.692;2023-04-10T14:47:06;26.10;28.20
3758;DHT22;1894;51.038;13.692;2023-04-10T14:49:34;27.30;28.60
3758;DHT22;1894;51.038;13.692;2023-04-10T14:52:01;28.20;27.40
3758;DHT22;1894;51.038;13.692;2023-04-10T14:54:28;28.70;27.40
3758;DHT22;1894;51.038;13.692;2023-04-10T14:56:56;28.10;26.80
3758;DHT22;1894;51.038;13.692;2023-04-10T14:59:24;27.30;28.00
3758;DHT22;1894;51.038;13.692;2023-04-10T15:01:52;26.20;29.20
3758;DHT22;1894;51.038;13.692;2023-04-10T15:04:22;27.00;29.10
3758;DHT22;1894;51.038;13.692;2023-04-10T15:06:55;29.10;28.30
3758;DHT22;1894;51.038;13.692;2023-04-10T15:09:35;29.80;27.20
3758;DHT22;1894;51.038;13.692;2023-04-10T15:12:03;29.40;27.40
3758;DHT22;1894;51.038;13.692;2023-04-10T15:14:33;30.20;27.20
3758;DHT22;1894;51.038;13.692;2023-04-10T15:17:00;31.40;26.50
3758;DHT22;1894;51.038;13.692;2023-04-10T15:19:28;31.80;25.80
3758;DHT22;1894;51.038;13.692;2023-04-10T15:21:55;30.70;26.10
3758;DHT22;1894;51.038;13.692;2023-04-10T15:24:22;30.20;26.40
3758;DHT22;1894;51.038;13.692;2023-04-10T15:26:49;30.20;26.30
3758;DHT22;1894;51.038;13.692;2023-04-10T15:29:19;30.90;26.90
3758;DHT22;1894;51.038;13.692;2023-04-10T15:31:46;31.40;26.60
3758;DHT22;1894;51.038;13.692;2023-04-10T15:34:13;29.10;26.80
3758;DHT22;1894;51.038;13.692;2023-04-10T15:36:41;28.50;27.30
3758;DHT22;1894;51.038;13.692;2023-04-10T15:39:09;28.90;27.60
3758;DHT22;1894;51.038;13.692;2023-04-10T15:41:36;28.50;27.00
3758;DHT22;1894;51.038;13.692;2023-04-10T15:44:04;26.90;28.40
3758;DHT22;1894;51.038;13.692;2023-04-10T15:46:31;27.00;28.70
3758;DHT22;1894;51.038;13.692;2023-04-10T15:48:59;26.80;28.50
3758;DHT22;1894;51.038;13.692;2023-04-10T15:51:26;25.70;29.40
3758;DHT22;1894;51.038;13.692;2023-04-10T15:53:54;26.50;29.30
3758;DHT22;1894;51.038;13.692;2023-04-10T15:56:21;24.60;30.50
3758;DHT22;1894;51.038;13.692;2023-04-10T15:58:49;25.10;30.80
3758;DHT22;1894;51.038;13.692;2023-04-10T16:01:16;26.30;29.70
3758;DHT22;1894;51.038;13.692;2023-04-10T16:03:43;26.50;29.50
3758;DHT22;1894;51.038;13.692;2023-04-10T16:06:11;26.30;30.00
3758;DHT22;1894;51.038;13.692;2023-04-10T16:08:39;26.20;29.20
3758;DHT22;1894;51.038;13.692;2023-04-10T16:11:06;25.50;29.90
3758;DHT22;1894;51.038;13.692;2023-04-10T16:13:33;26.20;30.00
3758;DHT22;1894;51.038;13.692;2023-04-10T16:16:00;25.90;29.70
3758;DHT22;1894;51.038;13.692;2023-04-10T16:18:27;26.00;30.30
3758;DHT22;1894;51.038;13.692;2023-04-10T16:20:54;25.40;29.60
3758;DHT22;1894;51.038;13.692;2023-04-10T16:23:22;25.80;29.90
3758;DHT22;1894;51.038;13.692;2023-04-10T16:25:49;24.90;30.00
3758;DHT22;1894;51.038;13.692;2023-04-10T16:28:16;24.00;30.70
3758;DHT22;1894;51.038;13.692;2023-04-10T16:30:43;23.60;31.30
3758;DHT22;1894;51.038;13.692;2023-04-10T16:33:10;22.90;32.70
3758;DHT22;1894;51.038;13.692;2023-04-10T16:35:37;22.00;34.00
3758;DHT22;1894;51.038;13.692;2023-04-10T16:38:05;21.20;34.40
3758;DHT22;1894;51.038;13.692;2023-04-10T16:40:32;20.70;35.70
3758;DHT22;1894;51.038;13.692;2023-04-10T16:42:59;20.50;36.40
3758;DHT22;1894;51.038;13.692;2023-04-10T16:45:27;20.10;36.60
3758;DHT22;1894;51.038;13.692;2023-04-10T16:47:55;19.80;37.00
3758;DHT22;1894;51.038;13.692;2023-04-10T16:50:22;19.30;37.90
3758;DHT22;1894;51.038;13.692;2023-04-10T16:52:49;19.50;37.90
3758;DHT22;1894;51.038;13.692;2023-04-10T16:55:17;19.50;38.00
3758;DHT22;1894;51.038;13.692;2023-04-10T16:57:44;19.20;38.50
3758;DHT22;1894;51.038;13.692;2023-04-10T17:00:12;19.20;38.50
3758;DHT22;1894;51.038;13.692;2023-04-10T17:02:39;18.90;38.70
3758;DHT22;1894;51.038;13.692;2023-04-10T17:05:09;19.60;38.80
3758;DHT22;1894;51.038;13.692;2023-04-10T17:07:36;19.30;38.70
3758;DHT22;1894;51.038;13.692;2023-04-10T17:10:04;18.70;39.50
3758;DHT22;1894;51.038;13.692;2023-04-10T17:12:31;18.40;40.40